createdAt,value
2022-10-21T00:02:04.837Z,97470.78
2022-10-21T00:05:07.304Z,97476.94
2022-10-21T00:08:09.349Z,97475.81
2022-10-21T00:11:11.435Z,97468.19
2022-10-21T00:14:13.479Z,97458.91
2022-10-21T00:17:15.503Z,97448.03
2022-10-21T00:20:17.880Z,97461.22
2022-10-21T00:23:19.957Z,97468.28
2022-10-21T00:26:22.002Z,97472.00
2022-10-21T00:29:24.046Z,97479.47
2022-10-21T00:32:26.220Z,97484.22
2022-10-21T00:35:28.295Z,97482.03
2022-10-21T00:38:31.378Z,97473.38
2022-10-21T00:41:33.509Z,97483.69
2022-10-21T00:44:36.923Z,97486.41
2022-10-21T00:48:15.035Z,97478.97
2022-10-21T00:51:17.645Z,97467.84
2022-10-21T00:54:19.914Z,97456.94
2022-10-21T00:57:22.382Z,97464.88
2022-10-21T01:00:24.426Z,97472.03
2022-10-21T01:03:26.884Z,97479.84
2022-10-21T01:06:28.970Z,97487.03
2022-10-21T01:09:31.130Z,97483.38
2022-10-21T01:12:56.545Z,97477.13
2022-10-21T01:16:25.387Z,97474.75
2022-10-21T01:19:54.211Z,97478.22
2022-10-21T01:23:34.586Z,97476.09
2022-10-21T01:27:06.939Z,97478.47
2022-10-21T01:30:42.700Z,97478.47
2022-10-21T01:33:48.696Z,97490.16
2022-10-21T01:36:54.604Z,97479.78
2022-10-21T01:40:04.202Z,97471.22
2022-10-21T01:43:24.066Z,97457.28
2022-10-21T01:46:39.791Z,97456.44
2022-10-21T01:49:57.651Z,97473.69
2022-10-21T01:53:04.720Z,97489.31
2022-10-21T01:56:07.121Z,97492.19
2022-10-21T01:59:09.531Z,97481.84
2022-10-21T02:02:11.714Z,97472.03
2022-10-21T02:05:20.568Z,97469.69
2022-10-21T02:08:22.605Z,97474.81
2022-10-21T02:11:24.808Z,97463.31
2022-10-21T02:14:42.531Z,97456.00
2022-10-21T02:17:52.130Z,97460.34
2022-10-21T02:21:03.974Z,97456.88
2022-10-21T02:24:07.875Z,97463.41
2022-10-21T02:27:09.898Z,97463.22
2022-10-21T02:30:11.964Z,97464.03
2022-10-21T02:33:24.152Z,97464.34
2022-10-21T02:36:59.043Z,97473.66
2022-10-21T02:40:15.774Z,97473.44
2022-10-21T02:43:33.201Z,97462.28
2022-10-21T02:46:41.377Z,97458.56
2022-10-21T02:49:44.988Z,97463.41
2022-10-21T02:52:47.088Z,97455.41
2022-10-21T02:55:49.137Z,97461.25
2022-10-21T02:58:51.207Z,97449.84
2022-10-21T03:01:53.262Z,97448.00
2022-10-21T03:04:55.554Z,97440.06
2022-10-21T03:07:57.690Z,97449.34
2022-10-21T03:10:59.887Z,97448.03
2022-10-21T03:14:01.968Z,97448.81
2022-10-21T03:17:04.093Z,97445.88
2022-10-21T03:20:06.716Z,97448.78
2022-10-21T03:23:08.746Z,97444.53
2022-10-21T03:26:10.802Z,97441.34
2022-10-21T03:29:12.898Z,97437.72
2022-10-21T03:32:14.950Z,97445.38
2022-10-21T03:35:17.158Z,97441.41
2022-10-21T03:38:19.241Z,97433.97
2022-10-21T03:41:21.266Z,97424.19
2022-10-21T03:44:23.364Z,97432.41
2022-10-21T03:47:25.976Z,97432.66
2022-10-21T03:50:28.077Z,97433.19
2022-10-21T03:53:42.967Z,97441.16
2022-10-21T03:56:46.267Z,97440.06
2022-10-21T03:59:48.301Z,97448.78
2022-10-21T04:02:50.415Z,97444.03
2022-10-21T04:05:52.589Z,97443.47
2022-10-21T04:08:54.767Z,97442.19
2022-10-21T04:11:56.860Z,97431.84
2022-10-21T04:14:59.093Z,97427.34
2022-10-21T04:18:01.304Z,97423.09
2022-10-21T04:21:03.565Z,97420.16
2022-10-21T04:24:05.902Z,97410.59
2022-10-21T04:27:07.991Z,97404.75
2022-10-21T04:30:10.465Z,97398.91
2022-10-21T04:33:12.582Z,97389.66
2022-10-21T04:36:14.695Z,97394.16
2022-10-21T04:39:16.961Z,97394.41
2022-10-21T04:42:19.032Z,97399.72
2022-10-21T04:45:21.635Z,97401.91
2022-10-21T04:48:23.744Z,97388.34
2022-10-21T04:51:25.981Z,97394.22
2022-10-21T04:54:28.114Z,97401.66
2022-10-21T04:57:30.199Z,97390.50
2022-10-21T05:00:32.365Z,97388.88
2022-10-21T05:03:35.022Z,97390.19
2022-10-21T05:06:37.077Z,97378.28
2022-10-21T05:09:39.221Z,97369.78
2022-10-21T05:12:41.268Z,97360.00
2022-10-21T05:15:43.361Z,97358.38
2022-10-21T05:18:45.410Z,97359.19
2022-10-21T05:21:47.550Z,97353.06
2022-10-21T05:24:49.695Z,97348.38
2022-10-21T05:27:51.767Z,97345.47
2022-10-21T05:30:53.917Z,97350.22
2022-10-21T05:33:55.975Z,97354.22
2022-10-21T05:36:58.344Z,97354.44
2022-10-21T05:40:00.602Z,97347.31
2022-10-21T05:43:02.717Z,97339.66
2022-10-21T05:46:05.185Z,97349.72
2022-10-21T05:49:07.647Z,97349.72
2022-10-21T05:52:09.877Z,97345.75
2022-10-21T05:55:11.967Z,97339.91
2022-10-21T05:58:14.055Z,97337.00
2022-10-21T06:01:16.192Z,97345.47
2022-10-21T06:04:18.433Z,97350.50
2022-10-21T06:07:20.496Z,97346.56
2022-10-21T06:10:26.700Z,97361.19
2022-10-21T06:13:31.730Z,97360.09
2022-10-21T06:16:36.916Z,97364.06
2022-10-21T06:19:38.971Z,97357.44
2022-10-21T06:22:41.068Z,97355.31
2022-10-21T06:25:44.507Z,97353.22
2022-10-21T06:28:46.569Z,97353.22
2022-10-21T06:31:48.609Z,97366.47
2022-10-21T06:34:50.678Z,97366.16
2022-10-21T06:37:52.694Z,97372.81
2022-10-21T06:41:01.943Z,97355.00
2022-10-21T06:44:04.151Z,97371.50
2022-10-21T06:47:06.231Z,97368.56
2022-10-21T06:50:08.610Z,97377.56
2022-10-21T06:53:10.667Z,97371.66
2022-10-21T06:56:16.557Z,97365.50
2022-10-21T06:59:18.894Z,97369.09
2022-10-21T07:02:21.102Z,97377.81
2022-10-21T07:05:23.153Z,97381.28
2022-10-21T07:08:46.322Z,97384.19
2022-10-21T07:11:49.119Z,97383.41
2022-10-21T07:14:51.314Z,97392.38
2022-10-21T07:17:53.386Z,97398.75
2022-10-21T07:20:56.354Z,97402.47
2022-10-21T07:23:59.471Z,97409.63
2022-10-21T07:27:01.778Z,97405.66
2022-10-21T07:30:04.059Z,97411.22
2022-10-21T07:33:06.158Z,97404.84
2022-10-21T07:36:10.506Z,97411.72
2022-10-21T07:39:14.659Z,97393.38
2022-10-21T07:42:16.694Z,97389.38
2022-10-21T07:45:18.917Z,97394.44
2022-10-21T07:48:23.411Z,97392.88
2022-10-21T07:51:28.665Z,97396.59
2022-10-21T07:54:32.393Z,97390.75
2022-10-21T07:57:34.394Z,97390.50
2022-10-21T08:00:36.533Z,97401.63
2022-10-21T08:03:38.952Z,97403.22
2022-10-21T08:06:41.365Z,97409.06
2022-10-21T08:09:43.514Z,97405.63
2022-10-21T08:12:45.662Z,97405.25
2022-10-21T08:15:50.310Z,97407.63
2022-10-21T08:18:52.422Z,97414.81
2022-10-21T08:21:54.822Z,97405.28
2022-10-21T08:24:56.891Z,97403.47
2022-10-21T08:27:58.926Z,97403.44
2022-10-21T08:31:06.135Z,97407.13
2022-10-21T08:34:08.280Z,97410.09
2022-10-21T08:37:10.350Z,97417.28
2022-10-21T08:40:12.703Z,97414.09
2022-10-21T08:43:25.372Z,97415.66
2022-10-21T08:46:32.218Z,97407.09
2022-10-21T08:50:00.834Z,97415.91
2022-10-21T08:53:07.322Z,97414.34
2022-10-21T08:56:18.673Z,97422.84
2022-10-21T08:59:23.619Z,97407.19
2022-10-21T09:02:30.260Z,97410.09
2022-10-21T09:06:15.590Z,97402.16
2022-10-21T09:09:39.382Z,97386.41
2022-10-21T09:12:51.137Z,97399.72
2022-10-21T09:16:14.590Z,97409.28
2022-10-21T09:19:55.276Z,97403.75
2022-10-21T09:23:11.449Z,97408.47
2022-10-21T09:26:41.545Z,97411.41
2022-10-21T09:29:45.006Z,97403.31
2022-10-21T09:32:59.972Z,97403.19
2022-10-21T09:36:36.479Z,97410.78
2022-10-21T09:39:42.103Z,97400.31
2022-10-21T09:42:48.401Z,97404.44
2022-10-21T09:45:50.800Z,97395.22
2022-10-21T09:49:23.261Z,97407.72
2022-10-21T09:52:18.554Z,97401.84
2022-10-21T09:55:20.600Z,97405.56
2022-10-21T09:58:38.878Z,97394.88
2022-10-21T10:01:42.389Z,97396.78
2022-10-21T10:04:44.467Z,97389.03
2022-10-21T10:07:46.492Z,97384.31
2022-10-21T10:10:48.686Z,97387.00
2022-10-21T10:14:36.882Z,97384.38
2022-10-21T10:17:39.833Z,97383.47
2022-10-21T10:20:41.915Z,97378.13
2022-10-21T10:23:52.078Z,97390.00
2022-10-21T10:26:54.169Z,97386.59
2022-10-21T10:29:56.807Z,97382.16
2022-10-21T10:32:59.432Z,97380.06
2022-10-21T10:36:09.330Z,97374.28
2022-10-21T10:39:22.340Z,97363.75
2022-10-21T10:42:31.865Z,97355.25
2022-10-21T10:45:34.035Z,97363.31
2022-10-21T10:48:43.309Z,97367.06
2022-10-21T10:51:47.212Z,97368.84
2022-10-21T10:54:49.631Z,97357.28
2022-10-21T10:58:06.117Z,97365.09
2022-10-21T11:01:18.410Z,97356.63
2022-10-21T11:04:32.610Z,97356.41
2022-10-21T11:07:52.635Z,97344.03
2022-10-21T11:11:01.115Z,97345.16
2022-10-21T11:14:03.242Z,97338.06
2022-10-21T11:17:12.201Z,97340.56
2022-10-21T11:20:39.451Z,97335.38
2022-10-21T11:24:17.348Z,97340.00
2022-10-21T11:27:27.711Z,97341.31
2022-10-21T11:30:59.104Z,97335.44
2022-10-21T11:34:13.647Z,97338.88
2022-10-21T11:37:25.902Z,97342.78
2022-10-21T11:40:40.434Z,97333.56
2022-10-21T11:44:03.421Z,97329.38
2022-10-21T11:47:35.559Z,97325.84
2022-10-21T11:50:49.742Z,97329.13
2022-10-21T11:54:11.996Z,97328.59
2022-10-21T11:57:30.217Z,97327.50
2022-10-21T12:01:25.907Z,97326.91
2022-10-21T12:04:52.163Z,97327.16
2022-10-21T12:08:16.006Z,97318.59
2022-10-21T12:11:39.460Z,97315.97
2022-10-21T12:15:19.882Z,97314.69
2022-10-21T12:18:23.446Z,97311.66
2022-10-21T12:21:28.970Z,97301.47
2022-10-21T12:24:40.321Z,97306.00
2022-10-21T12:28:04.543Z,97303.44
2022-10-21T12:31:29.148Z,97301.72
2022-10-21T12:34:31.212Z,97300.44
2022-10-21T12:37:51.428Z,97300.22
2022-10-21T12:41:24.455Z,97295.66
2022-10-21T12:44:27.494Z,97303.41
2022-10-21T12:47:35.551Z,97307.69
2022-10-21T12:50:37.630Z,97301.34
2022-10-21T12:53:56.734Z,97304.88
2022-10-21T12:57:22.546Z,97303.47
2022-10-21T13:00:27.842Z,97295.59
2022-10-21T13:03:46.383Z,97292.78
2022-10-21T13:06:54.165Z,97295.84
2022-10-21T13:09:56.096Z,97281.66
2022-10-21T13:13:29.019Z,97289.69
2022-10-21T13:16:41.243Z,97290.47
2022-10-21T13:19:43.345Z,97291.25
2022-10-21T13:22:50.037Z,97295.38
2022-10-21T13:26:14.712Z,97287.28
2022-10-21T13:29:38.656Z,97287.28
2022-10-21T13:32:41.589Z,97283.66
2022-10-21T13:35:48.942Z,97282.31
2022-10-21T13:38:52.682Z,97270.84
2022-10-21T13:42:16.690Z,97266.53
2022-10-21T13:45:28.715Z,97254.28
2022-10-21T13:48:30.789Z,97259.19
2022-10-21T13:51:35.275Z,97250.53
2022-10-21T13:54:37.357Z,97254.16
2022-10-21T13:57:40.369Z,97254.19
2022-10-21T14:00:42.737Z,97263.88
2022-10-21T14:03:45.322Z,97272.19
2022-10-21T14:06:51.306Z,97264.50
2022-10-21T14:09:55.858Z,97263.34
2022-10-21T14:16:01.939Z,97257.66
2022-10-21T14:19:17.436Z,97263.06
2022-10-21T14:22:22.848Z,97256.03
2022-10-21T14:25:24.918Z,97253.03
2022-10-21T14:28:27.406Z,97254.69
2022-10-21T14:31:29.582Z,97246.78
2022-10-21T14:34:34.159Z,97239.16
2022-10-21T14:38:15.465Z,97230.50
2022-10-21T14:41:40.054Z,97227.06
2022-10-21T14:44:43.181Z,97227.78
2022-10-21T14:47:52.909Z,97230.56
2022-10-21T14:51:01.571Z,97229.81
2022-10-21T14:54:05.329Z,97230.81
2022-10-21T14:57:44.075Z,97219.59
2022-10-21T15:00:47.026Z,97222.50
2022-10-21T15:03:57.952Z,97211.31
2022-10-21T15:07:01.507Z,97207.59
2022-10-21T15:10:03.462Z,97195.81
2022-10-21T15:13:17.426Z,97196.31
2022-10-21T15:16:19.510Z,97207.06
2022-10-21T15:19:31.897Z,97199.25
2022-10-21T15:22:34.697Z,97195.50
2022-10-21T15:28:43.777Z,97198.03
2022-10-21T15:31:45.887Z,97193.03
2022-10-21T15:34:51.063Z,97194.19
2022-10-21T15:37:53.547Z,97184.44
2022-10-21T15:40:55.577Z,97187.28
2022-10-21T15:44:02.521Z,97185.44
2022-10-21T15:47:08.288Z,97185.03
2022-10-21T15:50:15.625Z,97187.34
2022-10-21T15:53:17.696Z,97189.25
2022-10-21T15:56:19.873Z,97189.00
2022-10-21T15:59:32.890Z,97193.53
2022-10-21T16:02:39.493Z,97189.16
2022-10-21T16:05:41.878Z,97182.44
2022-10-21T16:08:44.183Z,97187.66
2022-10-21T16:11:59.072Z,97190.72
2022-10-21T16:15:01.762Z,97179.28
2022-10-21T16:18:03.887Z,97178.75
2022-10-21T16:21:06.178Z,97172.47
2022-10-21T16:24:08.631Z,97190.69
2022-10-21T16:27:12.602Z,97182.59
2022-10-21T16:30:30.065Z,97184.53
2022-10-21T16:33:32.246Z,97190.09
2022-10-21T16:36:38.086Z,97190.41
2022-10-21T16:39:40.178Z,97185.19
2022-10-21T16:42:42.422Z,97186.22
2022-10-21T16:45:44.628Z,97180.94
2022-10-21T16:48:46.786Z,97182.06
2022-10-21T16:51:49.110Z,97185.94
2022-10-21T16:54:51.195Z,97178.94
2022-10-21T16:57:53.333Z,97176.63
2022-10-21T17:00:56.650Z,97166.78
2022-10-21T17:04:03.920Z,97170.09
2022-10-21T17:07:05.993Z,97170.69
2022-10-21T17:10:08.840Z,97174.38
2022-10-21T17:13:11.955Z,97166.59
2022-10-21T17:16:14.102Z,97168.56
2022-10-21T17:19:16.195Z,97172.47
2022-10-21T17:22:18.329Z,97176.63
2022-10-21T17:25:22.798Z,97156.91
2022-10-21T17:28:24.887Z,97171.09
2022-10-21T17:31:29.021Z,97172.47
2022-10-21T17:34:33.810Z,97164.00
2022-10-21T17:37:35.899Z,97168.75
2022-10-21T17:40:37.997Z,97162.78
2022-10-21T17:43:40.136Z,97163.84
2022-10-21T17:46:42.405Z,97164.03
2022-10-21T17:49:44.481Z,97162.91
2022-10-21T17:52:46.653Z,97162.47
2022-10-21T17:56:06.391Z,97156.09
2022-10-21T17:59:08.617Z,97154.06
2022-10-21T18:02:10.785Z,97147.47
2022-10-21T18:05:12.882Z,97153.75
2022-10-21T18:08:14.955Z,97144.59
2022-10-21T18:11:18.670Z,97143.47
2022-10-21T18:14:20.774Z,97150.09
2022-10-21T18:17:22.804Z,97152.94
2022-10-21T18:20:24.867Z,97149.94
2022-10-21T18:23:26.885Z,97144.28
2022-10-21T18:26:30.788Z,97144.84
2022-10-21T18:29:34.269Z,97147.41
2022-10-21T18:32:36.416Z,97147.31
2022-10-21T18:35:39.055Z,97139.50
2022-10-21T18:38:41.193Z,97149.22
2022-10-21T18:41:43.325Z,97143.59
2022-10-21T18:44:45.506Z,97144.44
2022-10-21T18:47:47.650Z,97146.00
2022-10-21T18:50:49.668Z,97142.75
2022-10-21T18:53:52.938Z,97143.06
2022-10-21T18:56:55.273Z,97137.75
2022-10-21T18:59:57.831Z,97138.72
2022-10-21T19:02:59.894Z,97131.03
2022-10-21T19:06:41.063Z,97137.41
2022-10-21T19:09:43.138Z,97136.38
2022-10-21T19:12:45.648Z,97120.66
2022-10-21T19:15:47.741Z,97123.13
2022-10-21T19:18:50.011Z,97124.09
2022-10-21T19:21:52.118Z,97117.72
2022-10-21T19:24:54.197Z,97132.97
2022-10-21T19:27:56.313Z,97133.97
2022-10-21T19:30:58.346Z,97137.50
2022-10-21T19:34:00.404Z,97138.81
2022-10-21T19:37:02.564Z,97140.38
2022-10-21T19:40:05.080Z,97145.41
2022-10-21T19:43:07.118Z,97137.63
2022-10-21T19:46:09.358Z,97139.81
2022-10-21T19:49:13.031Z,97134.38
2022-10-21T19:52:15.072Z,97130.69
2022-10-21T19:55:19.048Z,97135.09
2022-10-21T19:58:21.293Z,97132.47
2022-10-21T20:01:25.401Z,97126.97
2022-10-21T20:04:28.726Z,97133.75
2022-10-21T20:07:38.653Z,97125.72
2022-10-21T20:10:41.002Z,97131.22
2022-10-21T20:13:43.194Z,97128.94
2022-10-21T20:16:48.229Z,97134.50
2022-10-21T20:19:50.610Z,97121.97
2022-10-21T20:22:52.688Z,97142.53
2022-10-21T20:25:56.978Z,97143.13
2022-10-21T20:29:00.660Z,97148.31
2022-10-21T20:32:02.977Z,97144.94
2022-10-21T20:35:05.911Z,97140.94
2022-10-21T20:38:09.334Z,97134.91
2022-10-21T20:41:14.650Z,97145.00
2022-10-21T20:44:16.822Z,97141.41
2022-10-21T20:47:19.162Z,97144.75
2022-10-21T20:50:21.223Z,97146.06
2022-10-21T20:53:24.482Z,97151.31
2022-10-21T20:56:33.691Z,97153.91
2022-10-21T20:59:35.863Z,97153.38
2022-10-21T21:02:38.055Z,97157.50
2022-10-21T21:05:40.085Z,97163.44
2022-10-21T21:08:48.758Z,97153.28
2022-10-21T21:11:55.768Z,97162.81
2022-10-21T21:14:57.855Z,97159.34
2022-10-21T21:18:02.313Z,97165.25
2022-10-21T21:21:06.846Z,97163.75
2022-10-21T21:24:08.966Z,97159.19
2022-10-21T21:27:11.065Z,97169.47
2022-10-21T21:30:13.117Z,97160.97
2022-10-21T21:33:15.160Z,97162.63
2022-10-21T21:36:18.126Z,97167.94
2022-10-21T21:39:20.158Z,97165.63
2022-10-21T21:42:22.177Z,97155.41
2022-10-21T21:45:24.234Z,97156.84
2022-10-21T21:48:26.826Z,97150.63
2022-10-21T21:51:29.564Z,97150.19
2022-10-21T21:54:31.595Z,97144.78
2022-10-21T21:57:33.676Z,97142.41
2022-10-21T22:00:36.079Z,97144.06
2022-10-21T22:03:38.263Z,97140.44
2022-10-21T22:06:40.333Z,97144.16
2022-10-21T22:09:42.380Z,97132.34
2022-10-21T22:12:44.687Z,97136.56
2022-10-21T22:15:48.620Z,97139.13
2022-10-21T22:18:50.859Z,97135.09
2022-10-21T22:21:52.915Z,97133.13
2022-10-21T22:24:54.950Z,97129.75
2022-10-21T22:27:56.975Z,97132.69
2022-10-21T22:31:05.305Z,97127.94
2022-10-21T22:34:10.916Z,97123.38
2022-10-21T22:37:14.212Z,97120.28
2022-10-21T22:40:16.296Z,97124.97
2022-10-21T22:43:23.798Z,97126.41
2022-10-21T22:46:41.209Z,97122.59
2022-10-21T22:49:43.736Z,97122.84
2022-10-21T22:52:45.790Z,97126.06
2022-10-21T22:55:47.894Z,97117.56
2022-10-21T22:58:49.913Z,97118.88
2022-10-21T23:01:51.978Z,97117.94
2022-10-21T23:04:59.094Z,97117.06
2022-10-21T23:08:01.207Z,97117.66
2022-10-21T23:11:03.232Z,97122.22
2022-10-21T23:14:08.787Z,97118.19
2022-10-21T23:17:11.154Z,97113.03
2022-10-21T23:20:13.221Z,97103.38
2022-10-21T23:23:15.245Z,97112.28
2022-10-21T23:26:17.303Z,97112.22
2022-10-21T23:29:19.331Z,97116.94
2022-10-21T23:32:21.362Z,97106.56
2022-10-21T23:35:23.826Z,97117.94
2022-10-21T23:38:25.882Z,97116.72
2022-10-21T23:41:28.326Z,97116.47
2022-10-21T23:44:30.434Z,97117.78
2022-10-21T23:47:32.583Z,97115.28
2022-10-21T23:50:34.685Z,97116.75
2022-10-21T23:53:36.713Z,97125.78
2022-10-21T23:56:38.807Z,97137.38
2022-10-21T23:59:40.843Z,97138.53
